Time;durP1;ratioP1;P1;durP2;ratioP2;P2;SDS_P1;SDS_P2;PMS_P1;PMS_P2;Temp;Humidity;BMP_temperature;BMP_pressure;BME280_temperature;BME280_humidity;BME280_pressure;Samples;Min_cycle;Max_cycle;Signal;HPM_P1;HPM_P2
2022/11/09 00:01:21;;;;;;;15.27;8.82;;;;;;;;;;5064291;28;20197;-70
2022/11/09 00:03:47;;;;;;;12.00;8.52;;;;;;;;;;5064039;28;20197;-70
2022/11/09 00:06:14;;;;;;;13.38;8.50;;;;;;;;;;5063939;28;20349;-70
2022/11/09 00:08:41;;;;;;;11.85;7.88;;;;;;;;;;5063779;28;20205;-70
2022/11/09 00:11:08;;;;;;;10.25;7.85;;;;;;;;;;5064077;28;20197;-70
2022/11/09 00:13:36;;;;;;;10.13;7.60;;;;;;;;;;5063755;28;20204;-70
2022/11/09 00:16:03;;;;;;;15.40;8.23;;;;;;;;;;5063692;28;20207;-70
2022/11/09 00:18:29;;;;;;;11.80;8.55;;;;;;;;;;5063374;28;20272;-70
2022/11/09 00:20:56;;;;;;;12.63;8.30;;;;;;;;;;5063870;28;20216;-70
2022/11/09 00:23:22;;;;;;;13.05;7.93;;;;;;;;;;5063884;28;20215;-70
2022/11/09 00:25:48;;;;;;;10.10;7.43;;;;;;;;;;5063664;28;20197;-70
2022/11/09 00:28:15;;;;;;;9.95;7.53;;;;;;;;;;5063314;28;20415;-70
2022/11/09 00:30:42;;;;;;;10.57;7.70;;;;;;;;;;5063473;28;20200;-70
2022/11/09 00:33:11;;;;;;;10.50;7.40;;;;;;;;;;5063446;28;20197;-70
2022/11/09 00:35:37;;;;;;;12.48;7.25;;;;;;;;;;5063348;28;20435;-70
2022/11/09 00:38:04;;;;;;;11.85;7.65;;;;;;;;;;5062998;28;20255;-70
2022/11/09 00:40:30;;;;;;;9.70;7.18;;;;;;;;;;5063415;28;20733;-70
2022/11/09 00:42:56;;;;;;;13.32;8.05;;;;;;;;;;5063282;28;20216;-70
2022/11/09 00:45:22;;;;;;;9.63;6.80;;;;;;;;;;5063173;28;20204;-70
2022/11/09 00:47:50;;;;;;;12.05;7.57;;;;;;;;;;5062761;28;20366;-70
2022/11/09 00:50:16;;;;;;;9.80;7.18;;;;;;;;;;5062094;28;20430;-70
2022/11/09 00:52:43;;;;;;;11.38;7.85;;;;;;;;;;5063271;28;20230;-70
2022/11/09 00:55:09;;;;;;;11.55;7.90;;;;;;;;;;5063161;28;20208;-70
2022/11/09 00:57:36;;;;;;;12.88;7.88;;;;;;;;;;5062959;28;20197;-70
2022/11/09 01:00:02;;;;;;;9.52;6.68;;;;;;;;;;5063390;28;20491;-70
2022/11/09 01:02:28;;;;;;;9.95;6.60;;;;;;;;;;5062939;28;20204;-70
2022/11/09 01:04:56;;;;;;;11.23;6.95;;;;;;;;;;5062857;28;20197;-70
2022/11/09 01:07:23;;;;;;;12.23;7.43;;;;;;;;;;5062997;28;20204;-70
2022/11/09 01:09:49;;;;;;;7.40;6.45;;;;;;;;;;5062665;28;20215;-70
2022/11/09 01:12:15;;;;;;;10.65;7.15;;;;;;;;;;5062914;28;20201;-70
2022/11/09 01:14:41;;;;;;;7.82;6.70;;;;;;;;;;5062695;28;20197;-70
2022/11/09 01:17:08;;;;;;;9.70;6.90;;;;;;;;;;5062563;28;20204;-70
2022/11/09 01:19:34;;;;;;;7.28;6.10;;;;;;;;;;5062371;28;20217;-70
2022/11/09 01:22:02;;;;;;;8.50;6.72;;;;;;;;;;5062704;28;20231;-70
2022/11/09 01:24:28;;;;;;;9.98;6.82;;;;;;;;;;5062799;28;20292;-70
2022/11/09 01:26:54;;;;;;;12.50;6.70;;;;;;;;;;5062376;28;20212;-70
2022/11/09 01:29:20;;;;;;;7.28;6.55;;;;;;;;;;5062187;28;20426;-70
2022/11/09 01:31:47;;;;;;;8.95;7.28;;;;;;;;;;5062299;28;20204;-70
2022/11/09 01:34:15;;;;;;;9.85;7.53;;;;;;;;;;5062578;28;20338;-70
2022/11/09 01:36:41;;;;;;;10.35;7.30;;;;;;;;;;5062551;28;20197;-70
2022/11/09 01:39:08;;;;;;;10.10;7.38;;;;;;;;;;5062132;28;20197;-70
2022/11/09 01:41:35;;;;;;;11.35;7.10;;;;;;;;;;5062164;28;20435;-70
2022/11/09 01:44:02;;;;;;;9.13;6.80;;;;;;;;;;5062031;28;20197;-70
2022/11/09 01:46:30;;;;;;;9.55;7.20;;;;;;;;;;5062064;28;20196;-70
2022/11/09 01:48:58;;;;;;;11.65;7.07;;;;;;;;;;5061985;28;20204;-70
2022/11/09 01:51:27;;;;;;;8.45;7.18;;;;;;;;;;5062137;28;20205;-70
2022/11/09 01:53:58;;;;;;;12.55;7.45;;;;;;;;;;5062079;28;20197;-70
2022/11/09 01:56:26;;;;;;;8.82;7.28;;;;;;;;;;5061982;28;20505;-70
2022/11/09 01:58:54;;;;;;;11.07;7.90;;;;;;;;;;5061933;28;20223;-70
2022/11/09 02:01:21;;;;;;;11.55;7.65;;;;;;;;;;5061497;28;20221;-70
2022/11/09 02:03:50;;;;;;;9.70;7.28;;;;;;;;;;5061948;28;20196;-70
2022/11/09 02:06:18;;;;;;;10.25;7.63;;;;;;;;;;5062278;28;20227;-70
2022/11/09 02:08:44;;;;;;;9.45;7.72;;;;;;;;;;5061597;28;20197;-70
2022/11/09 02:11:12;;;;;;;10.07;7.90;;;;;;;;;;5061608;28;20200;-69
2022/11/09 02:13:42;;;;;;;13.07;8.45;;;;;;;;;;5062028;28;20211;-69
2022/11/09 02:16:10;;;;;;;14.70;8.57;;;;;;;;;;5061855;28;20221;-69
2022/11/09 02:18:37;;;;;;;12.25;9.13;;;;;;;;;;5060764;28;20508;-69
2022/11/09 02:21:04;;;;;;;14.70;8.27;;;;;;;;;;5061803;28;20247;-69
2022/11/09 02:23:31;;;;;;;10.52;8.00;;;;;;;;;;5061871;28;20227;-69
2022/11/09 02:25:59;;;;;;;11.27;8.38;;;;;;;;;;5061627;28;20197;-69
2022/11/09 02:28:26;;;;;;;10.30;7.85;;;;;;;;;;5061323;28;20480;-69
2022/11/09 02:30:54;;;;;;;14.10;7.97;;;;;;;;;;5061613;28;20362;-69
2022/11/09 02:33:20;;;;;;;14.30;9.05;;;;;;;;;;5061390;28;20189;-69
2022/11/09 02:35:46;;;;;;;12.38;8.27;;;;;;;;;;5061686;28;20205;-69
2022/11/09 02:38:14;;;;;;;10.13;7.88;;;;;;;;;;5061389;28;20517;-71
2022/11/09 02:40:42;;;;;;;12.43;7.90;;;;;;;;;;5061622;28;20216;-70
2022/11/09 02:43:09;;;;;;;11.82;7.95;;;;;;;;;;5061551;28;20527;-70
2022/11/09 02:45:36;;;;;;;12.80;7.82;;;;;;;;;;5061426;28;20204;-70
2022/11/09 02:48:02;;;;;;;11.90;8.25;;;;;;;;;;5061045;28;20197;-70
2022/11/09 02:50:28;;;;;;;10.90;7.95;;;;;;;;;;5061498;28;20193;-70
2022/11/09 02:52:55;;;;;;;11.15;8.15;;;;;;;;;;5061603;28;20392;-70
2022/11/09 02:55:22;;;;;;;11.50;8.07;;;;;;;;;;5061371;28;20204;-70
2022/11/09 02:57:49;;;;;;;11.15;7.90;;;;;;;;;;5061014;28;20197;-70
2022/11/09 03:00:15;;;;;;;12.80;8.30;;;;;;;;;;5061642;28;20224;-70
2022/11/09 03:02:42;;;;;;;10.77;7.90;;;;;;;;;;5061468;28;20407;-71
2022/11/09 03:05:08;;;;;;;10.63;7.68;;;;;;;;;;5061433;28;20296;-70
2022/11/09 03:07:34;;;;;;;9.45;7.88;;;;;;;;;;5061165;28;20197;-70
2022/11/09 03:10:01;;;;;;;10.68;8.00;;;;;;;;;;5061283;28;20540;-70
2022/11/09 03:12:28;;;;;;;11.75;7.68;;;;;;;;;;5061263;28;20203;-70
2022/11/09 03:14:55;;;;;;;10.63;7.00;;;;;;;;;;5064497;28;20211;-70
2022/11/09 03:17:21;;;;;;;12.23;6.90;;;;;;;;;;5065223;28;20403;-70
2022/11/09 03:19:47;;;;;;;8.48;6.55;;;;;;;;;;5064562;28;20217;-70
2022/11/09 03:22:14;;;;;;;8.98;6.60;;;;;;;;;;5065041;28;20243;-70
2022/11/09 03:24:40;;;;;;;9.57;7.03;;;;;;;;;;5064938;28;20197;-70
2022/11/09 03:27:06;;;;;;;10.43;6.65;;;;;;;;;;5064686;28;20197;-70
2022/11/09 03:29:34;;;;;;;7.78;6.72;;;;;;;;;;5064374;28;20216;-70
2022/11/09 03:32:00;;;;;;;9.10;6.65;;;;;;;;;;5064785;28;20193;-70
2022/11/09 03:34:26;;;;;;;10.30;7.72;;;;;;;;;;5064792;28;20201;-70
2022/11/09 03:36:53;;;;;;;9.90;8.20;;;;;;;;;;5064728;28;20197;-70
2022/11/09 03:39:19;;;;;;;12.48;8.30;;;;;;;;;;5064341;28;20204;-70
2022/11/09 03:41:46;;;;;;;12.05;8.88;;;;;;;;;;5064247;28;20252;-70
2022/11/09 03:44:12;;;;;;;10.80;7.95;;;;;;;;;;5064431;28;20201;-70
2022/11/09 03:46:40;;;;;;;12.07;8.60;;;;;;;;;;5064618;28;20205;-70
2022/11/09 03:49:06;;;;;;;11.77;8.82;;;;;;;;;;5064072;28;20203;-70
2022/11/09 03:51:32;;;;;;;10.45;8.15;;;;;;;;;;5064428;28;20524;-70
2022/11/09 03:53:58;;;;;;;12.05;7.90;;;;;;;;;;5064359;28;20201;-70
2022/11/09 03:56:25;;;;;;;12.70;8.18;;;;;;;;;;5064137;28;20208;-70
2022/11/09 03:58:51;;;;;;;13.40;8.88;;;;;;;;;;5063801;28;20197;-70
2022/11/09 04:01:17;;;;;;;11.02;7.75;;;;;;;;;;5064232;28;20225;-70
2022/11/09 04:03:45;;;;;;;13.88;8.23;;;;;;;;;;5064191;28;20203;-70
2022/11/09 04:06:11;;;;;;;9.95;7.45;;;;;;;;;;5064073;28;20251;-70
2022/11/09 04:08:37;;;;;;;9.45;7.85;;;;;;;;;;5063818;28;20197;-70
2022/11/09 04:11:04;;;;;;;10.18;7.40;;;;;;;;;;5063853;28;20193;-70
2022/11/09 04:13:30;;;;;;;9.77;8.00;;;;;;;;;;5064138;28;20204;-70
2022/11/09 04:15:56;;;;;;;12.60;8.35;;;;;;;;;;5063747;28;20204;-70
2022/11/09 04:18:22;;;;;;;13.10;8.25;;;;;;;;;;5063631;28;20205;-70
2022/11/09 04:20:50;;;;;;;12.45;8.52;;;;;;;;;;5063733;28;20227;-70
2022/11/09 04:23:16;;;;;;;10.80;8.32;;;;;;;;;;5063756;28;20197;-70
2022/11/09 04:25:43;;;;;;;14.60;8.77;;;;;;;;;;5063202;28;20251;-70
2022/11/09 04:28:10;;;;;;;9.32;8.38;;;;;;;;;;5063552;28;20259;-70
2022/11/09 04:30:37;;;;;;;9.82;7.82;;;;;;;;;;5063822;28;20201;-70
2022/11/09 04:33:03;;;;;;;16.20;8.75;;;;;;;;;;5063594;28;20201;-70
2022/11/09 04:35:31;;;;;;;11.98;8.27;;;;;;;;;;5063552;28;20197;-70
2022/11/09 04:38:00;;;;;;;13.00;9.35;;;;;;;;;;5063270;28;20216;-70
2022/11/09 04:40:27;;;;;;;16.60;9.80;;;;;;;;;;5063734;28;20496;-70
2022/11/09 04:42:53;;;;;;;16.02;11.23;;;;;;;;;;5063696;28;20231;-70
2022/11/09 04:45:20;;;;;;;14.77;8.88;;;;;;;;;;5063660;28;20388;-70
2022/11/09 04:47:46;;;;;;;13.70;8.82;;;;;;;;;;5063084;28;20197;-70
2022/11/09 04:50:13;;;;;;;11.27;8.15;;;;;;;;;;5063283;28;20200;-70
2022/11/09 04:52:39;;;;;;;15.02;9.45;;;;;;;;;;5063439;28;20204;-70
2022/11/09 04:55:08;;;;;;;14.55;8.35;;;;;;;;;;5062981;28;20209;-71
2022/11/09 04:57:34;;;;;;;11.38;8.32;;;;;;;;;;5063336;28;20380;-70
2022/11/09 05:00:00;;;;;;;10.88;7.75;;;;;;;;;;5063210;28;20208;-71
2022/11/09 05:02:26;;;;;;;9.85;7.50;;;;;;;;;;5062979;28;20303;-71
2022/11/09 05:04:53;;;;;;;11.75;7.88;;;;;;;;;;5062822;28;20201;-71
2022/11/09 05:07:20;;;;;;;11.63;7.53;;;;;;;;;;5062803;28;20497;-71
2022/11/09 05:09:46;;;;;;;10.43;6.88;;;;;;;;;;5062845;28;20205;-71
2022/11/09 05:12:14;;;;;;;7.63;6.93;;;;;;;;;;5062711;28;20197;-71
2022/11/09 05:14:40;;;;;;;10.55;6.85;;;;;;;;;;5062822;28;20493;-71
2022/11/09 05:17:07;;;;;;;7.50;6.55;;;;;;;;;;5062835;28;20232;-71
2022/11/09 05:19:33;;;;;;;8.23;6.53;;;;;;;;;;5062241;28;20212;-71
2022/11/09 05:23:57;;;;;;;8.10;6.28;;;;;;;;;;5062298;28;20225;-71
2022/11/09 05:24:45;;;;;;;7.40;6.25;;;;;;;;;;5062343;28;20235;-71
2022/11/09 05:27:11;;;;;;;9.32;6.38;;;;;;;;;;5062625;28;20197;-71
2022/11/09 05:29:39;;;;;;;7.65;6.43;;;;;;;;;;5062278;28;20390;-71
2022/11/09 05:32:05;;;;;;;8.15;5.93;;;;;;;;;;5062509;28;20227;-71
2022/11/09 05:34:32;;;;;;;8.90;6.32;;;;;;;;;;5062228;28;20197;-71
2022/11/09 05:36:58;;;;;;;7.47;6.63;;;;;;;;;;5061852;28;20438;-71
2022/11/09 05:39:25;;;;;;;6.40;5.78;;;;;;;;;;5061987;28;20236;-71
2022/11/09 05:41:51;;;;;;;7.47;5.47;;;;;;;;;;5062403;28;20221;-71
2022/11/09 05:44:17;;;;;;;8.52;6.07;;;;;;;;;;5062323;28;20220;-71
2022/11/09 05:46:45;;;;;;;7.05;5.43;;;;;;;;;;5062086;28;20197;-71
2022/11/09 05:49:11;;;;;;;6.65;6.05;;;;;;;;;;5061703;28;20212;-71
2022/11/09 05:51:37;;;;;;;6.35;5.72;;;;;;;;;;5062087;28;20208;-71
2022/11/09 05:54:04;;;;;;;7.70;6.03;;;;;;;;;;5062105;28;20198;-71
2022/11/09 05:56:30;;;;;;;7.97;4.97;;;;;;;;;;5061971;28;20197;-71
2022/11/09 05:58:56;;;;;;;7.30;5.47;;;;;;;;;;5061671;28;20197;-71
2022/11/09 06:01:23;;;;;;;8.57;6.53;;;;;;;;;;5061795;28;20528;-72
2022/11/09 06:03:53;;;;;;;16.98;11.35;;;;;;;;;;5061738;28;20486;-71
2022/11/09 06:06:19;;;;;;;16.05;10.05;;;;;;;;;;5061586;28;20190;-71
2022/11/09 06:08:45;;;;;;;13.85;8.98;;;;;;;;;;5061639;28;20397;-71
2022/11/09 06:11:12;;;;;;;13.02;9.32;;;;;;;;;;5061864;28;20193;-71
2022/11/09 06:13:39;;;;;;;16.35;8.90;;;;;;;;;;5061846;28;20436;-71
2022/11/09 06:16:06;;;;;;;13.93;9.57;;;;;;;;;;5061567;28;20197;-71
2022/11/09 06:18:33;;;;;;;20.63;11.05;;;;;;;;;;5061489;28;20540;-71
2022/11/09 06:21:01;;;;;;;20.20;11.10;;;;;;;;;;5061720;28;20520;-71
2022/11/09 06:23:29;;;;;;;18.95;9.70;;;;;;;;;;5061393;28;20265;-71
2022/11/09 06:25:57;;;;;;;20.05;9.85;;;;;;;;;;5061356;28;20224;-71
2022/11/09 06:28:23;;;;;;;17.02;9.00;;;;;;;;;;5060847;28;20537;-71
2022/11/09 06:30:49;;;;;;;14.07;8.60;;;;;;;;;;5061105;28;20193;-71
2022/11/09 06:33:16;;;;;;;15.27;8.98;;;;;;;;;;5061443;28;20208;-71
2022/11/09 06:35:42;;;;;;;14.95;9.50;;;;;;;;;;5061237;28;20197;-71
2022/11/09 06:38:10;;;;;;;13.10;9.40;;;;;;;;;;5061007;28;20203;-71
2022/11/09 06:40:38;;;;;;;15.40;8.82;;;;;;;;;;5061270;28;20244;-71
2022/11/09 06:43:04;;;;;;;11.65;8.52;;;;;;;;;;5061048;28;20216;-71
2022/11/09 06:45:30;;;;;;;17.65;8.65;;;;;;;;;;5061273;28;20205;-71
2022/11/09 06:47:57;;;;;;;12.25;8.77;;;;;;;;;;5063390;28;20510;-71
2022/11/09 06:50:23;;;;;;;10.93;8.32;;;;;;;;;;5065143;28;20197;-71
2022/11/09 06:52:50;;;;;;;12.07;8.55;;;;;;;;;;5065188;28;20520;-71
2022/11/09 06:55:17;;;;;;;10.30;8.13;;;;;;;;;;5065005;28;20197;-71
2022/11/09 06:57:44;;;;;;;12.35;8.60;;;;;;;;;;5064964;28;20412;-71
2022/11/09 07:00:11;;;;;;;11.18;8.30;;;;;;;;;;5065170;28;20197;-71
2022/11/09 07:02:37;;;;;;;9.05;7.80;;;;;;;;;;5065212;28;20444;-71
2022/11/09 07:05:03;;;;;;;10.70;8.32;;;;;;;;;;5064987;28;20197;-71
2022/11/09 07:07:30;;;;;;;14.40;7.75;;;;;;;;;;5064942;28;20474;-71
2022/11/09 07:09:57;;;;;;;10.77;8.73;;;;;;;;;;5064650;28;20198;-71
2022/11/09 07:12:24;;;;;;;8.93;7.32;;;;;;;;;;5064642;28;20193;-71
2022/11/09 07:14:50;;;;;;;9.40;8.32;;;;;;;;;;5064843;28;20196;-71
2022/11/09 07:17:17;;;;;;;8.95;7.78;;;;;;;;;;5064733;28;20402;-62
2022/11/09 07:19:43;;;;;;;12.80;8.05;;;;;;;;;;5053704;28;20217;-61
2022/11/09 07:22:09;;;;;;;12.70;8.00;;;;;;;;;;5054048;28;20286;-61
2022/11/09 07:24:36;;;;;;;10.13;7.93;;;;;;;;;;5060485;28;20209;-61
2022/11/09 07:27:02;;;;;;;10.40;7.80;;;;;;;;;;5072141;28;20205;-61
2022/11/09 07:29:30;;;;;;;11.57;7.50;;;;;;;;;;5048933;28;20410;-61
2022/11/09 07:31:56;;;;;;;11.98;7.80;;;;;;;;;;5042732;28;20531;-61
2022/11/09 07:34:22;;;;;;;15.73;8.38;;;;;;;;;;5052168;28;20206;-60
2022/11/09 07:36:48;;;;;;;14.18;8.57;;;;;;;;;;5047509;28;20214;-61
2022/11/09 07:39:15;;;;;;;12.85;9.48;;;;;;;;;;5051488;28;20225;-61
2022/11/09 07:41:41;;;;;;;11.23;9.35;;;;;;;;;;5036862;28;20226;-61
2022/11/09 07:44:07;;;;;;;11.95;7.80;;;;;;;;;;5040704;28;20383;-61
2022/11/09 07:46:35;;;;;;;9.60;8.02;;;;;;;;;;5056273;28;20232;-61
2022/11/09 07:49:01;;;;;;;10.63;7.95;;;;;;;;;;5045990;28;20217;-61
2022/11/09 07:51:28;;;;;;;9.57;8.02;;;;;;;;;;5044524;28;20437;-59
2022/11/09 07:53:54;;;;;;;9.52;7.70;;;;;;;;;;5040061;28;20240;-62
2022/11/09 07:56:20;;;;;;;8.65;7.30;;;;;;;;;;5052818;28;20213;-60
2022/11/09 07:58:49;;;;;;;8.75;7.78;;;;;;;;;;5047587;28;20470;-60
2022/11/09 08:01:15;;;;;;;8.38;7.35;;;;;;;;;;5045028;28;20493;-61
2022/11/09 08:03:43;;;;;;;13.68;7.78;;;;;;;;;;5037122;28;20224;-61
2022/11/09 08:06:09;;;;;;;9.80;6.68;;;;;;;;;;5042703;28;20202;-61
2022/11/09 08:08:35;;;;;;;7.40;6.70;;;;;;;;;;5053085;28;20529;-60
2022/11/09 08:11:01;;;;;;;9.73;7.53;;;;;;;;;;5037505;28;20440;-60
2022/11/09 08:13:28;;;;;;;11.98;7.65;;;;;;;;;;5042360;28;20237;-60
2022/11/09 08:15:54;;;;;;;10.15;8.02;;;;;;;;;;5051048;28;20520;-60
2022/11/09 08:18:21;;;;;;;10.88;8.52;;;;;;;;;;5043854;28;20221;-60
2022/11/09 08:20:49;;;;;;;9.43;7.97;;;;;;;;;;5056607;28;20212;-62
2022/11/09 08:23:17;;;;;;;11.95;8.88;;;;;;;;;;5050489;28;20233;-62
2022/11/09 08:25:43;;;;;;;12.82;8.63;;;;;;;;;;5036328;28;20312;-63
2022/11/09 08:28:09;;;;;;;10.63;7.60;;;;;;;;;;5037714;28;20222;-60
2022/11/09 08:30:36;;;;;;;7.95;7.15;;;;;;;;;;5053268;28;20224;-60
2022/11/09 08:33:03;;;;;;;8.52;7.60;;;;;;;;;;5050955;28;20544;-62
2022/11/09 08:35:29;;;;;;;8.30;7.47;;;;;;;;;;5056879;28;20273;-63
2022/11/09 08:37:59;;;;;;;9.27;7.30;;;;;;;;;;5042884;28;20236;-61
2022/11/09 08:40:26;;;;;;;9.07;6.95;;;;;;;;;;5039857;28;20217;-61
2022/11/09 08:42:52;;;;;;;8.45;7.05;;;;;;;;;;5042317;28;20564;-61
2022/11/09 08:45:19;;;;;;;8.70;6.45;;;;;;;;;;5036337;28;20252;-63
2022/11/09 08:47:46;;;;;;;8.05;6.40;;;;;;;;;;5056047;28;20223;-63
2022/11/09 08:50:13;;;;;;;10.15;6.70;;;;;;;;;;5040457;28;20217;-61
2022/11/09 08:52:39;;;;;;;9.27;7.30;;;;;;;;;;5036381;28;20393;-61
2022/11/09 08:55:08;;;;;;;9.30;7.55;;;;;;;;;;5036066;28;20259;-60
2022/11/09 08:57:34;;;;;;;14.73;7.57;;;;;;;;;;5036380;28;20221;-61
2022/11/09 09:00:00;;;;;;;12.85;8.13;;;;;;;;;;5036258;28;20222;-62
2022/11/09 09:02:26;;;;;;;13.88;8.25;;;;;;;;;;5054170;28;20469;-61
2022/11/09 09:04:53;;;;;;;10.25;7.43;;;;;;;;;;5054023;28;20290;-60
2022/11/09 09:07:19;;;;;;;11.88;7.75;;;;;;;;;;5057618;28;20216;-64
2022/11/09 09:09:45;;;;;;;9.73;6.93;;;;;;;;;;5043845;28;20220;-61
2022/11/09 09:12:13;;;;;;;11.27;6.50;;;;;;;;;;5056314;28;20232;-63
2022/11/09 09:14:39;;;;;;;10.30;6.50;;;;;;;;;;5057484;28;20205;-61
2022/11/09 09:17:05;;;;;;;12.93;7.00;;;;;;;;;;5046229;28;20202;-60
2022/11/09 09:19:32;;;;;;;11.73;6.47;;;;;;;;;;5036345;28;20228;-63
2022/11/09 09:21:58;;;;;;;8.55;5.95;;;;;;;;;;5046623;28;20236;-60
2022/11/09 09:24:25;;;;;;;11.15;6.05;;;;;;;;;;5056839;28;20231;-60
2022/11/09 09:26:51;;;;;;;10.02;5.90;;;;;;;;;;5056120;28;20430;-59
2022/11/09 09:29:19;;;;;;;6.38;5.25;;;;;;;;;;5044615;28;20230;-60
2022/11/09 09:31:45;;;;;;;6.20;5.60;;;;;;;;;;5041542;28;20213;-61
2022/11/09 09:34:12;;;;;;;5.90;5.38;;;;;;;;;;5035055;28;20445;-61
2022/11/09 09:36:38;;;;;;;6.68;5.28;;;;;;;;;;5048113;28;20244;-60
2022/11/09 09:39:05;;;;;;;8.30;5.32;;;;;;;;;;5055432;28;20539;-60
2022/11/09 09:41:36;;;;;;;6.45;5.95;;;;;;;;;;5055605;28;20197;-60
2022/11/09 09:44:18;;;;;;;6.28;5.53;;;;;;;;;;5057571;28;20423;-60
2022/11/09 09:46:47;;;;;;;6.53;5.10;;;;;;;;;;5055035;28;20289;-60
2022/11/09 09:49:15;;;;;;;4.43;4.10;;;;;;;;;;5049135;28;20211;-62
2022/11/09 09:51:45;;;;;;;5.05;4.40;;;;;;;;;;5047947;28;20204;-63
2022/11/09 09:54:12;;;;;;;6.80;4.25;;;;;;;;;;5041536;28;20221;-63
2022/11/09 09:56:39;;;;;;;4.57;4.18;;;;;;;;;;5038961;28;20433;-63
2022/11/09 09:59:09;;;;;;;4.75;4.10;;;;;;;;;;5055299;28;20503;-63
2022/11/09 10:01:36;;;;;;;3.45;3.25;;;;;;;;;;5054112;28;20227;-63
2022/11/09 10:04:08;;;;;;;3.45;3.25;;;;;;;;;;5051207;28;20233;-63
2022/11/09 10:06:40;;;;;;;3.58;3.38;;;;;;;;;;5035635;28;20259;-63
2022/11/09 10:09:12;;;;;;;3.88;3.03;;;;;;;;;;5038891;28;20213;-63
2022/11/09 10:11:47;;;;;;;3.70;3.40;;;;;;;;;;5055035;28;20220;-63
2022/11/09 10:14:28;;;;;;;4.03;3.40;;;;;;;;;;5055662;28;20216;-63
2022/11/09 10:16:58;;;;;;;3.53;2.85;;;;;;;;;;5041630;28;20210;-64
2022/11/09 10:19:30;;;;;;;2.90;2.70;;;;;;;;;;5054539;28;20626;-63
2022/11/09 10:22:00;;;;;;;3.20;3.00;;;;;;;;;;5055281;28;20205;-64
2022/11/09 10:24:32;;;;;;;2.80;2.60;;;;;;;;;;5055661;28;20752;-64
2022/11/09 10:26:58;;;;;;;2.88;2.70;;;;;;;;;;5054726;28;20224;-64
2022/11/09 10:29:26;;;;;;;2.30;2.20;;;;;;;;;;5039691;28;20251;-64
2022/11/09 10:31:53;;;;;;;3.53;2.30;;;;;;;;;;5035370;28;20524;-64
2022/11/09 10:34:20;;;;;;;2.03;1.98;;;;;;;;;;5048381;28;20220;-64
2022/11/09 10:36:52;;;;;;;2.20;2.10;;;;;;;;;;5055080;28;20217;-64
2022/11/09 10:39:19;;;;;;;1.90;1.80;;;;;;;;;;5054685;28;20524;-63
2022/11/09 10:41:45;;;;;;;2.35;2.15;;;;;;;;;;5051305;28;20272;-63
2022/11/09 10:44:14;;;;;;;2.05;1.80;;;;;;;;;;5035356;28;20237;-62
2022/11/09 10:46:55;;;;;;;1.95;1.85;;;;;;;;;;5034286;28;20221;-63
2022/11/09 10:49:21;;;;;;;3.25;2.97;;;;;;;;;;5041601;28;20467;-63
2022/11/09 10:51:49;;;;;;;1.77;1.70;;;;;;;;;;5055685;28;20409;-63
2022/11/09 10:54:18;;;;;;;4.10;1.83;;;;;;;;;;5054850;28;20209;-63
2022/11/09 10:56:45;;;;;;;2.72;1.83;;;;;;;;;;5053750;28;20209;-63
2022/11/09 10:59:35;;;;;;;1.60;1.55;;;;;;;;;;5037460;28;20562;-63
2022/11/09 11:02:01;;;;;;;2.20;1.98;;;;;;;;;;5042692;28;20494;-63
2022/11/09 11:04:28;;;;;;;2.03;1.92;;;;;;;;;;5041595;28;20555;-66
2022/11/09 11:06:55;;;;;;;2.35;2.15;;;;;;;;;;5056052;28;20216;-66
2022/11/09 11:09:22;;;;;;;2.20;2.10;;;;;;;;;;5055354;28;20259;-62
2022/11/09 11:11:48;;;;;;;1.73;1.70;;;;;;;;;;5045668;28;20214;-62
2022/11/09 11:14:16;;;;;;;2.10;1.98;;;;;;;;;;5054966;28;20243;-63
2022/11/09 11:16:43;;;;;;;2.20;2.10;;;;;;;;;;5050706;28;20214;-61
2022/11/09 11:19:24;;;;;;;2.55;2.45;;;;;;;;;;5034267;28;20554;-61
2022/11/09 11:22:07;;;;;;;2.03;2.00;;;;;;;;;;5050855;28;20418;-60
2022/11/09 11:24:40;;;;;;;2.50;2.30;;;;;;;;;;5053138;28;20209;-61
2022/11/09 11:27:10;;;;;;;3.15;2.67;;;;;;;;;;5043596;28;20271;-62
2022/11/09 11:29:42;;;;;;;3.53;2.35;;;;;;;;;;5038930;28;20232;-61
2022/11/09 11:32:10;;;;;;;4.75;2.42;;;;;;;;;;5034177;28;20214;-61
2022/11/09 11:34:37;;;;;;;1.63;1.52;;;;;;;;;;5034863;28;20225;-61
2022/11/09 11:37:09;;;;;;;2.22;1.83;;;;;;;;;;5037163;28;20446;-61
2022/11/09 11:39:42;;;;;;;1.80;1.70;;;;;;;;;;5042794;28;20205;-61
2022/11/09 11:42:21;;;;;;;3.67;1.70;;;;;;;;;;5055763;28;20225;-61
2022/11/09 11:44:59;;;;;;;1.35;1.35;;;;;;;;;;5040947;28;20216;-62
2022/11/09 11:47:32;;;;;;;1.77;1.60;;;;;;;;;;5045350;28;20212;-61
2022/11/09 11:50:04;;;;;;;2.08;1.33;;;;;;;;;;5054393;28;20219;-61
2022/11/09 11:52:40;;;;;;;1.00;1.00;;;;;;;;;;5046185;28;20457;-61
2022/11/09 11:55:30;;;;;;;1.45;1.42;;;;;;;;;;5057512;28;20209;-61
2022/11/09 11:58:02;;;;;;;3.80;1.58;;;;;;;;;;5045783;28;20444;-62
2022/11/09 12:00:31;;;;;;;1.70;1.70;;;;;;;;;;5045657;28;20458;-64
2022/11/09 12:03:05;;;;;;;2.50;2.03;;;;;;;;;;5038604;28;20437;-64
2022/11/09 12:05:48;;;;;;;1.42;1.42;;;;;;;;;;5037940;28;20551;-64
2022/11/09 12:08:20;;;;;;;1.48;1.48;;;;;;;;;;5038064;28;20284;-64
2022/11/09 12:10:52;;;;;;;1.60;1.48;;;;;;;;;;5057630;28;20213;-64
2022/11/09 12:13:28;;;;;;;1.77;1.67;;;;;;;;;;5049479;28;20216;-64
2022/11/09 12:15:57;;;;;;;2.75;1.35;;;;;;;;;;5037366;28;20208;-64
2022/11/09 12:18:31;;;;;;;2.05;1.95;;;;;;;;;;5037168;28;20254;-64
2022/11/09 12:21:00;;;;;;;1.77;1.67;;;;;;;;;;5051122;28;20220;-64
2022/11/09 12:23:35;;;;;;;2.38;1.92;;;;;;;;;;5037575;28;20233;-64
2022/11/09 12:26:07;;;;;;;1.85;1.75;;;;;;;;;;5038213;28;20246;-64
2022/11/09 12:28:42;;;;;;;1.85;1.85;;;;;;;;;;5038550;28;20236;-64
2022/11/09 12:31:12;;;;;;;1.85;1.75;;;;;;;;;;5052796;28;20212;-64
2022/11/09 12:33:46;;;;;;;2.30;2.15;;;;;;;;;;5037805;28;20216;-62
2022/11/09 12:36:16;;;;;;;1.88;1.77;;;;;;;;;;5055470;28;20528;-61
2022/11/09 12:38:47;;;;;;;1.92;1.83;;;;;;;;;;5048781;28;20209;-62
2022/11/09 12:41:16;;;;;;;3.72;1.98;;;;;;;;;;5038136;28;20217;-62
2022/11/09 12:43:45;;;;;;;2.40;2.20;;;;;;;;;;5047650;28;20315;-61
2022/11/09 12:46:13;;;;;;;2.30;2.20;;;;;;;;;;5055712;28;20213;-61
2022/11/09 12:48:40;;;;;;;4.60;2.10;;;;;;;;;;5054939;28;20217;-61
2022/11/09 12:51:07;;;;;;;3.10;2.28;;;;;;;;;;5057105;28;20220;-61
2022/11/09 12:53:35;;;;;;;2.30;2.20;;;;;;;;;;5037976;28;20615;-62
2022/11/09 12:56:06;;;;;;;3.13;2.90;;;;;;;;;;5048952;28;20217;-62
2022/11/09 12:58:33;;;;;;;4.03;2.85;;;;;;;;;;5056666;28;20220;-61
2022/11/09 13:01:00;;;;;;;2.72;2.63;;;;;;;;;;5048088;28;20251;-63
2022/11/09 13:03:27;;;;;;;3.13;2.28;;;;;;;;;;5056587;28;20416;-63
2022/11/09 13:06:11;;;;;;;3.22;2.53;;;;;;;;;;5050993;28;20513;-62
2022/11/09 13:08:38;;;;;;;2.65;2.50;;;;;;;;;;5046633;28;20210;-62
2022/11/09 13:11:09;;;;;;;2.75;2.55;;;;;;;;;;5039376;28;20402;-62
2022/11/09 13:13:36;;;;;;;2.72;2.50;;;;;;;;;;5039913;28;20214;-65
2022/11/09 13:16:04;;;;;;;4.00;2.55;;;;;;;;;;5052113;28;20536;-62
2022/11/09 13:18:45;;;;;;;2.45;2.28;;;;;;;;;;5059206;28;20262;-61
2022/11/09 13:21:30;;;;;;;2.20;2.10;;;;;;;;;;5049823;28;20484;-62
2022/11/09 13:23:56;;;;;;;2.58;2.40;;;;;;;;;;5051430;28;20234;-62
2022/11/09 13:26:44;;;;;;;3.03;2.40;;;;;;;;;;5057418;28;20219;-61
2022/11/09 13:29:21;;;;;;;2.60;2.40;;;;;;;;;;5044067;28;20220;-62
2022/11/09 13:32:06;;;;;;;2.25;2.03;;;;;;;;;;5044646;28;20216;-62
2022/11/09 13:34:39;;;;;;;4.93;2.42;;;;;;;;;;5054894;28;20205;-61
2022/11/09 13:37:24;;;;;;;2.97;2.60;;;;;;;;;;5058517;28;20419;-61
2022/11/09 13:39:50;;;;;;;3.58;2.10;;;;;;;;;;5058283;28;20197;-61
2022/11/09 13:42:26;;;;;;;2.45;2.13;;;;;;;;;;5051843;28;20209;-62
2022/11/09 13:44:52;;;;;;;3.85;2.30;;;;;;;;;;5039603;28;20233;-62
2022/11/09 13:47:23;;;;;;;2.80;2.40;;;;;;;;;;5045761;28;20216;-61
2022/11/09 13:49:50;;;;;;;2.55;2.10;;;;;;;;;;5045400;28;20209;-61
2022/11/09 13:52:35;;;;;;;3.05;2.47;;;;;;;;;;5038998;28;20226;-61
2022/11/09 13:55:02;;;;;;;2.40;2.20;;;;;;;;;;5048593;28;20236;-61
2022/11/09 13:57:31;;;;;;;3.88;2.30;;;;;;;;;;5042987;28;20224;-61
2022/11/09 13:59:58;;;;;;;5.50;2.15;;;;;;;;;;5043207;28;20215;-61
2022/11/09 14:02:26;;;;;;;2.47;2.10;;;;;;;;;;5058882;28;20552;-61
2022/11/09 14:04:53;;;;;;;5.65;2.38;;;;;;;;;;5058326;28;20220;-61
2022/11/09 14:07:22;;;;;;;2.38;1.80;;;;;;;;;;5050850;28;20216;-61
2022/11/09 14:09:54;;;;;;;2.25;2.10;;;;;;;;;;5054766;28;20208;-62
2022/11/09 14:12:30;;;;;;;2.50;1.92;;;;;;;;;;5060048;28;20521;-62
2022/11/09 14:15:13;;;;;;;1.92;1.83;;;;;;;;;;5054842;28;20227;-61
2022/11/09 14:17:42;;;;;;;2.60;2.40;;;;;;;;;;5039375;28;20204;-61
2022/11/09 14:20:13;;;;;;;2.88;2.67;;;;;;;;;;5046397;28;20228;-61
2022/11/09 14:22:40;;;;;;;2.47;2.20;;;;;;;;;;5058613;28;20201;-61
2022/11/09 14:25:13;;;;;;;1.92;1.80;;;;;;;;;;5056543;28;20235;-63
2022/11/09 14:27:45;;;;;;;3.63;2.00;;;;;;;;;;5053643;28;20221;-62
2022/11/09 14:30:19;;;;;;;2.22;2.13;;;;;;;;;;5034184;28;20626;-63
2022/11/09 14:32:48;;;;;;;2.22;2.00;;;;;;;;;;5043647;28;20220;-62
2022/11/09 14:35:25;;;;;;;3.05;1.90;;;;;;;;;;5034759;28;20216;-62
2022/11/09 14:37:53;;;;;;;2.28;2.08;;;;;;;;;;5035117;28;20213;-60
2022/11/09 14:40:21;;;;;;;1.73;1.63;;;;;;;;;;5043008;28;20520;-60
2022/11/09 14:42:48;;;;;;;3.03;2.10;;;;;;;;;;5035582;28;20386;-60
2022/11/09 14:45:15;;;;;;;1.70;1.65;;;;;;;;;;5048757;28;20233;-60